createdAt,value
2022-11-05T00:00:38.199Z,101444.13
2022-11-05T00:05:58.605Z,101454.00
2022-11-05T00:11:01.022Z,101439.22
2022-11-05T00:16:21.393Z,101436.50
2022-11-05T00:21:46.527Z,101431.31
2022-11-05T00:26:49.866Z,101430.78
2022-11-05T00:31:52.383Z,101419.00
2022-11-05T00:36:56.809Z,101425.34
2022-11-05T00:42:19.669Z,101437.44
2022-11-05T00:47:43.600Z,101434.16
2022-11-05T00:52:56.671Z,101449.00
2022-11-05T00:58:12.928Z,101450.38
2022-11-05T01:03:19.634Z,101468.75
2022-11-05T01:08:25.366Z,101471.22
2022-11-05T01:13:30.410Z,101479.69
2022-11-05T01:18:34.752Z,101482.16
2022-11-05T01:23:48.442Z,101476.41
2022-11-05T01:28:52.487Z,101477.50
2022-11-05T01:33:56.428Z,101470.13
2022-11-05T01:39:02.040Z,101469.03
2022-11-05T01:44:04.243Z,101472.31
2022-11-05T01:49:16.698Z,101459.16
2022-11-05T01:54:24.118Z,101466.31
2022-11-05T01:59:36.717Z,101478.38
2022-11-05T02:10:52.404Z,101480.03
2022-11-05T02:16:18.716Z,101475.91
2022-11-05T02:21:23.353Z,101476.19
2022-11-05T02:26:35.021Z,101479.47
2022-11-05T02:32:20.857Z,101486.88
2022-11-05T02:37:48.930Z,101494.81
2022-11-05T02:43:04.672Z,101493.16
2022-11-05T02:48:37.179Z,101503.03
2022-11-05T02:53:56.087Z,101493.72
2022-11-05T02:58:58.355Z,101480.81
2022-11-05T03:04:02.189Z,101484.94
2022-11-05T03:09:30.867Z,101491.25
2022-11-05T03:15:03.450Z,101482.47
2022-11-05T03:20:25.856Z,101481.88
2022-11-05T03:25:30.579Z,101475.84
2022-11-05T03:30:35.697Z,101473.38
2022-11-05T03:35:54.625Z,101467.09
2022-11-05T03:41:01.648Z,101471.19
2022-11-05T03:46:21.569Z,101488.19
2022-11-05T03:51:42.673Z,101470.66
2022-11-05T03:57:18.613Z,101470.69
2022-11-05T04:02:30.646Z,101472.06
2022-11-05T04:07:56.712Z,101476.44
2022-11-05T04:13:20.478Z,101478.91
2022-11-05T04:18:25.822Z,101491.53
2022-11-05T04:23:49.674Z,101498.09
2022-11-05T04:29:11.699Z,101495.06
2022-11-05T04:34:22.268Z,101499.16
2022-11-05T04:39:28.110Z,101516.69
2022-11-05T04:44:44.159Z,101515.03
2022-11-05T04:49:48.031Z,101516.13
2022-11-05T04:54:49.940Z,101528.72
2022-11-05T04:59:53.946Z,101544.63
2022-11-05T05:04:58.391Z,101544.06
2022-11-05T05:10:01.930Z,101548.44
2022-11-05T05:15:07.053Z,101557.75
2022-11-05T05:20:35.001Z,101562.66
2022-11-05T05:25:41.906Z,101572.50
2022-11-05T05:30:53.597Z,101568.06
2022-11-05T05:36:11.508Z,101576.34
2022-11-05T05:41:14.245Z,101575.25
2022-11-05T05:46:25.882Z,101569.72
2022-11-05T05:51:30.290Z,101568.31
2022-11-05T06:01:53.021Z,101579.22
2022-11-05T06:06:55.988Z,101567.16
2022-11-05T06:12:04.333Z,101563.59
2022-11-05T06:17:11.040Z,101567.69
2022-11-05T06:22:18.724Z,101556.44
2022-11-05T06:27:34.883Z,101564.09
2022-11-05T06:32:40.129Z,101566.28
2022-11-05T06:37:45.603Z,101571.47
2022-11-05T06:42:54.140Z,101579.13
2022-11-05T06:48:00.894Z,101591.16
2022-11-05T06:53:05.522Z,101600.75
2022-11-05T06:58:10.052Z,101585.41
2022-11-05T07:03:13.939Z,101599.66
2022-11-05T07:08:19.739Z,101607.91
2022-11-05T07:13:27.679Z,101604.63
2022-11-05T07:18:32.393Z,101615.09
2022-11-05T07:23:37.090Z,101617.31
2022-11-05T07:28:41.330Z,101627.25
2022-11-05T07:33:43.260Z,101654.75
2022-11-05T07:38:48.998Z,101665.81
2022-11-05T07:43:59.714Z,101702.38
2022-11-05T07:49:09.699Z,101719.84
2022-11-05T07:54:14.198Z,101735.34
2022-11-05T07:59:19.022Z,101739.81
2022-11-05T08:04:21.632Z,101736.13
2022-11-05T08:09:32.579Z,101730.59
2022-11-05T08:14:40.608Z,101743.63
2022-11-05T08:19:45.758Z,101754.97
2022-11-05T08:24:49.467Z,101768.75
2022-11-05T08:29:53.131Z,101754.97
2022-11-05T08:34:55.730Z,101762.06
2022-11-05T08:40:02.000Z,101768.97
2022-11-05T08:45:09.608Z,101759.59
2022-11-05T08:50:12.839Z,101759.59
2022-11-05T08:55:19.435Z,101770.28
2022-11-05T09:00:28.218Z,101781.91
2022-11-05T09:05:37.991Z,101773.44
2022-11-05T09:10:42.099Z,101777.53
2022-11-05T09:15:52.261Z,101777.63
2022-11-05T09:21:01.131Z,101776.59
2022-11-05T09:26:03.338Z,101786.94
2022-11-05T09:31:17.784Z,101781.75
2022-11-05T09:36:22.553Z,101779.13
2022-11-05T09:41:57.841Z,101784.75
2022-11-05T09:52:49.766Z,101783.63
2022-11-05T10:03:35.272Z,101798.88
2022-11-05T10:08:44.147Z,101798.38
2022-11-05T10:13:50.761Z,101792.03
2022-11-05T10:19:04.870Z,101795.38
2022-11-05T10:24:20.360Z,101790.81
2022-11-05T10:29:34.617Z,101798.44
2022-11-05T10:34:45.025Z,101806.66
2022-11-05T10:39:49.160Z,101801.53
2022-11-05T10:45:29.642Z,101798.34
2022-11-05T10:50:40.574Z,101789.44
2022-11-05T10:55:49.120Z,101795.56
2022-11-05T11:01:08.661Z,101800.81
2022-11-05T11:06:32.606Z,101788.22
2022-11-05T11:11:43.865Z,101789.72
2022-11-05T11:16:50.830Z,101782.69
2022-11-05T11:22:11.523Z,101785.94
2022-11-05T11:27:39.593Z,101784.97
2022-11-05T11:32:46.297Z,101771.41
2022-11-05T11:37:57.032Z,101750.28
2022-11-05T11:43:30.822Z,101750.13
2022-11-05T11:48:36.197Z,101754.38
2022-11-05T11:53:52.430Z,101745.84
2022-11-05T11:58:57.857Z,101746.97
2022-11-05T12:04:21.822Z,101748.47
2022-11-05T12:10:00.260Z,101732.44
2022-11-05T12:15:40.660Z,101720.50
2022-11-05T12:21:15.409Z,101710.63
2022-11-05T12:26:45.471Z,101714.72
2022-11-05T12:32:03.850Z,101706.94
2022-11-05T12:37:34.856Z,101705.19
2022-11-05T12:43:11.452Z,101709.84
2022-11-05T12:48:41.200Z,101708.19
2022-11-05T12:54:08.147Z,101708.50
2022-11-05T12:59:45.348Z,101708.47
2022-11-05T13:05:01.161Z,101680.44
2022-11-05T13:10:16.471Z,101682.97
2022-11-05T13:15:29.636Z,101675.50
2022-11-05T13:20:34.428Z,101672.44
2022-11-05T13:25:50.321Z,101667.44
2022-11-05T13:31:10.084Z,101663.91
2022-11-05T13:36:48.385Z,101661.78
2022-11-05T13:42:28.695Z,101657.34
2022-11-05T13:48:23.067Z,101656.81
2022-11-05T13:53:58.323Z,101659.56
2022-11-05T13:59:31.671Z,101642.06
2022-11-05T14:05:10.255Z,101629.69
2022-11-05T14:10:40.471Z,101643.00
2022-11-05T14:16:20.478Z,101639.94
2022-11-05T14:21:29.662Z,101629.81
2022-11-05T14:26:34.399Z,101637.78
2022-11-05T14:32:11.535Z,101645.25
2022-11-05T14:37:13.599Z,101652.19
2022-11-05T14:42:31.730Z,101637.34
2022-11-05T14:47:53.654Z,101630.72
2022-11-05T14:53:09.169Z,101623.44
2022-11-05T14:58:40.644Z,101618.09
2022-11-05T15:04:19.790Z,101627.09
2022-11-05T15:09:36.381Z,101630.38
2022-11-05T15:15:03.644Z,101621.16
2022-11-05T15:20:21.810Z,101625.22
2022-11-05T15:25:54.317Z,101616.72
2022-11-05T15:31:16.140Z,101622.16
2022-11-05T15:36:35.142Z,101637.09
2022-11-05T15:41:39.812Z,101638.53
2022-11-05T15:46:43.520Z,101640.47
2022-11-05T15:51:50.184Z,101641.31
2022-11-05T15:56:57.034Z,101648.97
2022-11-05T16:02:29.409Z,101657.56
2022-11-05T16:07:36.365Z,101651.69
2022-11-05T16:12:40.688Z,101656.69
2022-11-05T16:17:49.581Z,101661.91
2022-11-05T16:22:59.397Z,101661.38
2022-11-05T16:28:07.646Z,101666.44
2022-11-05T16:33:19.728Z,101662.94
2022-11-05T16:38:26.446Z,101674.13
2022-11-05T16:48:48.400Z,101669.41
2022-11-05T16:54:16.829Z,101672.25
2022-11-05T16:59:23.248Z,101676.69
2022-11-05T17:04:26.811Z,101677.28
2022-11-05T17:09:45.519Z,101673.47
2022-11-05T17:14:49.305Z,101678.47
2022-11-05T17:19:51.183Z,101680.69
2022-11-05T17:25:00.654Z,101692.31
2022-11-05T17:30:10.668Z,101686.88
2022-11-05T17:35:14.409Z,101697.38
2022-11-05T17:40:30.670Z,101695.50
2022-11-05T17:45:41.174Z,101684.25
2022-11-05T17:50:53.813Z,101680.97
2022-11-05T17:56:03.145Z,101693.16
2022-11-05T18:01:08.650Z,101705.09
2022-11-05T18:06:13.971Z,101703.88
2022-11-05T18:11:15.880Z,101711.13
2022-11-05T18:16:21.049Z,101721.97
2022-11-05T18:21:26.268Z,101713.47
2022-11-05T18:26:32.142Z,101724.00
2022-11-05T18:32:01.512Z,101728.75
2022-11-05T18:37:08.412Z,101729.34
2022-11-05T18:42:19.458Z,101738.22
2022-11-05T18:47:27.559Z,101737.50
2022-11-05T18:52:36.763Z,101737.56
2022-11-05T18:57:45.018Z,101732.09
2022-11-05T19:02:48.449Z,101738.47
2022-11-05T19:07:51.021Z,101743.44
2022-11-05T19:12:54.403Z,101752.03
2022-11-05T19:17:56.605Z,101747.63
2022-11-05T19:23:01.215Z,101744.34
2022-11-05T19:28:13.077Z,101742.19
2022-11-05T19:33:19.608Z,101739.50
2022-11-05T19:38:27.600Z,101746.69
2022-11-05T19:43:33.889Z,101747.81
2022-11-05T19:48:39.702Z,101745.63
2022-11-05T19:53:42.793Z,101754.16
2022-11-05T19:59:07.231Z,101764.06
2022-11-05T20:04:12.011Z,101758.31
2022-11-05T20:09:22.879Z,101760.50
2022-11-05T20:14:28.227Z,101767.69
2022-11-05T20:19:31.019Z,101763.28
2022-11-05T20:24:34.888Z,101766.59
2022-11-05T20:29:49.661Z,101773.72
2022-11-05T20:34:58.442Z,101776.47
2022-11-05T20:40:04.702Z,101774.28
2022-11-05T20:45:08.259Z,101772.63
2022-11-05T20:50:15.721Z,101790.75
2022-11-05T20:55:18.109Z,101789.09
2022-11-05T21:00:27.105Z,101781.97
2022-11-05T21:05:35.319Z,101778.94
2022-11-05T21:10:50.135Z,101767.69
2022-11-05T21:16:04.671Z,101761.91
2022-11-05T21:21:14.675Z,101758.34
2022-11-05T21:26:19.262Z,101752.84
2022-11-05T21:31:35.761Z,101742.41
2022-11-05T21:36:40.874Z,101744.88
2022-11-05T21:41:42.857Z,101742.94
2022-11-05T21:46:45.208Z,101754.19
2022-11-05T21:52:08.180Z,101745.97
2022-11-05T21:57:36.497Z,101744.84
2022-11-05T22:02:44.611Z,101745.59
2022-11-05T22:07:53.847Z,101747.22
2022-11-05T22:12:57.156Z,101752.41
2022-11-05T22:18:06.515Z,101743.59
2022-11-05T22:23:11.561Z,101749.34
2022-11-05T22:28:28.635Z,101749.88
2022-11-05T22:33:33.803Z,101756.97
2022-11-05T22:38:36.320Z,101752.00
2022-11-05T22:43:41.412Z,101728.41
2022-11-05T22:48:50.763Z,101740.44
2022-11-05T22:54:06.938Z,101739.31
2022-11-05T22:59:13.348Z,101734.38
2022-11-05T23:04:15.984Z,101729.41
2022-11-05T23:09:48.528Z,101735.94
2022-11-05T23:15:03.267Z,101726.03
2022-11-05T23:20:30.739Z,101714.47
2022-11-05T23:25:35.214Z,101710.34
2022-11-05T23:31:09.410Z,101707.84
2022-11-05T23:36:33.709Z,101701.53
2022-11-05T23:41:55.150Z,101703.69
2022-11-05T23:47:17.142Z,101700.63
2022-11-05T23:52:21.944Z,101690.75
2022-11-05T23:57:28.931Z,101686.06
